Time;durP1;ratioP1;P1;durP2;ratioP2;P2;SDS_P1;SDS_P2;PMS_P1;PMS_P2;Temp;Humidity;BMP_temperature;BMP_pressure;BME280_temperature;BME280_humidity;BME280_pressure;Samples;Min_cycle;Max_cycle;Signal;HPM_P1;HPM_P2
2022/01/09 00:01:29;;;;;;;51.63;24.70;;;;;;;7.35;100.00;98767.31;5030218;28;20193;-67
2022/01/09 00:03:56;;;;;;;50.13;25.60;;;;;;;7.30;100.00;98770.06;5030303;28;20696;-68
2022/01/09 00:06:25;;;;;;;62.53;25.57;;;;;;;7.28;100.00;98767.50;5030349;28;20299;-68
2022/01/09 00:08:51;;;;;;;52.97;25.77;;;;;;;7.26;100.00;98764.13;5030301;28;20197;-68
2022/01/09 00:11:25;;;;;;;51.63;25.50;;;;;;;7.22;100.00;98746.19;5030118;28;20198;-68
2022/01/09 00:13:53;;;;;;;51.77;24.27;;;;;;;7.45;100.00;98758.47;5030199;28;20583;-62
2022/01/09 00:16:20;;;;;;;51.20;24.80;;;;;;;7.41;100.00;98756.84;5029867;28;20193;-63
2022/01/09 00:18:47;;;;;;;49.97;24.13;;;;;;;7.39;100.00;98754.31;5030122;28;20692;-62
2022/01/09 00:21:14;;;;;;;49.80;25.03;;;;;;;7.24;100.00;98752.13;5030012;28;20200;-63
2022/01/09 00:23:44;;;;;;;43.73;23.53;;;;;;;7.15;100.00;98758.41;5029886;28;20201;-62
2022/01/09 00:26:12;;;;;;;53.43;25.20;;;;;;;7.30;100.00;98749.41;5029630;28;20205;-59
2022/01/09 00:28:39;;;;;;;48.47;23.50;;;;;;;7.34;100.00;98750.16;5029679;28;20260;-67
2022/01/09 00:31:06;;;;;;;49.50;24.73;;;;;;;7.34;100.00;98752.72;5030338;28;20280;-67
2022/01/09 00:33:33;;;;;;;52.77;26.13;;;;;;;7.34;100.00;98748.41;5029782;28;20201;-67
2022/01/09 00:36:00;;;;;;;51.23;24.43;;;;;;;7.36;100.00;98745.78;5029832;28;20377;-67
2022/01/09 00:38:27;;;;;;;50.83;24.80;;;;;;;7.24;100.00;98747.81;5029752;28;20213;-68
2022/01/09 00:40:56;;;;;;;52.57;25.17;;;;;;;7.22;100.00;98748.78;5029739;28;20233;-62
2022/01/09 00:43:23;;;;;;;57.60;25.97;;;;;;;7.28;100.00;98743.44;5033109;28;20197;-61
2022/01/09 00:45:49;;;;;;;55.00;26.17;;;;;;;7.32;100.00;98726.13;5033626;28;20284;-61
2022/01/09 00:48:16;;;;;;;52.63;25.70;;;;;;;7.34;100.00;98737.22;5033584;28;20726;-62
2022/01/09 00:50:43;;;;;;;61.40;28.47;;;;;;;7.33;100.00;98735.56;5033368;28;20288;-58
2022/01/09 00:53:10;;;;;;;69.13;29.60;;;;;;;7.25;100.00;98739.19;5033316;28;20239;-61
2022/01/09 00:55:37;;;;;;;75.83;31.10;;;;;;;7.24;100.00;98728.91;5033297;28;20247;-62
2022/01/09 00:58:06;;;;;;;69.47;29.67;;;;;;;7.18;100.00;98717.03;5033463;28;20324;-62
2022/01/09 01:00:35;;;;;;;70.87;29.67;;;;;;;7.27;100.00;98727.09;5033414;28;20207;-61
2022/01/09 01:03:02;;;;;;;76.13;31.60;;;;;;;7.25;100.00;98715.13;5033341;28;20199;-61
2022/01/09 01:05:29;;;;;;;73.03;31.80;;;;;;;7.18;100.00;98714.47;5033125;28;20212;-67
2022/01/09 01:07:56;;;;;;;80.93;34.87;;;;;;;7.02;100.00;98708.00;5033379;28;20664;-67
2022/01/09 01:10:23;;;;;;;83.80;33.33;;;;;;;7.11;100.00;98707.75;5033566;28;20591;-67
2022/01/09 01:12:50;;;;;;;74.53;33.13;;;;;;;7.13;100.00;98700.81;5033672;28;20197;-67
2022/01/09 01:15:18;;;;;;;78.93;32.93;;;;;;;7.24;100.00;98705.69;5034457;28;20201;-66
2022/01/09 01:17:46;;;;;;;79.87;32.77;;;;;;;7.09;100.00;98709.56;5033259;28;20292;-68
2022/01/09 01:20:13;;;;;;;91.17;34.70;;;;;;;7.05;100.00;98715.69;5033415;28;20621;-67
2022/01/09 01:22:41;;;;;;;89.17;34.50;;;;;;;7.11;100.00;98712.09;5033395;28;20680;-68
2022/01/09 01:25:09;;;;;;;79.27;33.20;;;;;;;7.23;100.00;98711.72;5032997;28;20205;-68
2022/01/09 01:27:36;;;;;;;87.83;35.00;;;;;;;7.29;100.00;98711.56;5033069;28;20718;-67
2022/01/09 01:30:04;;;;;;;76.83;33.83;;;;;;;7.23;100.00;98704.00;5033532;28;20197;-66
2022/01/09 01:32:33;;;;;;;88.10;35.07;;;;;;;7.12;100.00;98706.03;5032804;28;20199;-67
2022/01/09 01:35:00;;;;;;;84.47;35.00;;;;;;;7.19;100.00;98700.66;5032910;28;20201;-67
2022/01/09 01:37:26;;;;;;;85.43;34.93;;;;;;;7.24;100.00;98697.94;5032712;28;20229;-59
2022/01/09 01:39:53;;;;;;;86.53;34.17;;;;;;;7.26;100.00;98699.59;5032905;28;20203;-66
2022/01/09 01:42:20;;;;;;;75.33;33.03;;;;;;;7.38;100.00;98703.56;5033289;28;20199;-66
2022/01/09 01:44:49;;;;;;;76.13;33.50;;;;;;;7.41;100.00;98700.06;5032690;28;20205;-67
2022/01/09 01:47:19;;;;;;;80.73;34.10;;;;;;;7.41;100.00;98694.88;5032313;28;20221;-67
2022/01/09 01:49:48;;;;;;;76.00;34.00;;;;;;;7.36;100.00;98694.16;5032450;28;20291;-67
2022/01/09 01:52:17;;;;;;;78.93;34.47;;;;;;;7.32;100.00;98682.25;5032396;28;20194;-67
2022/01/09 01:54:44;;;;;;;84.27;34.40;;;;;;;7.22;100.00;98684.25;5032651;28;20204;-66
2022/01/09 01:57:11;;;;;;;77.33;33.93;;;;;;;7.22;100.00;98674.75;5032306;28;20284;-67
2022/01/09 01:59:38;;;;;;;80.90;34.33;;;;;;;7.32;100.00;98661.59;5033093;28;20209;-66
2022/01/09 02:02:06;;;;;;;82.13;34.07;;;;;;;7.39;100.00;98661.38;5032530;28;20199;-66
2022/01/09 02:04:34;;;;;;;74.47;32.53;;;;;;;7.45;100.00;98657.78;5032571;28;20588;-66
2022/01/09 02:07:04;;;;;;;81.03;33.73;;;;;;;7.46;100.00;98659.44;5032184;28;20200;-61
2022/01/09 02:09:31;;;;;;;77.00;33.00;;;;;;;7.18;100.00;98673.16;5032338;28;20220;-61
2022/01/09 02:11:58;;;;;;;73.43;32.40;;;;;;;7.22;100.00;98671.34;5032072;28;20251;-60
2022/01/09 02:14:24;;;;;;;80.63;32.83;;;;;;;7.31;100.00;98667.66;5032057;28;20604;-61
2022/01/09 02:16:52;;;;;;;76.50;33.37;;;;;;;7.40;100.00;98669.97;5031907;28;20236;-59
2022/01/09 02:19:21;;;;;;;78.80;34.93;;;;;;;7.28;100.00;98661.69;5032103;28;20206;-61
2022/01/09 02:21:49;;;;;;;70.30;33.40;;;;;;;7.32;100.00;98653.88;5032066;28;20596;-68
2022/01/09 02:24:17;;;;;;;77.57;34.60;;;;;;;7.41;100.00;98653.59;5032042;28;20240;-63
2022/01/09 02:26:44;;;;;;;63.67;31.60;;;;;;;7.39;100.00;98645.88;5031776;28;20668;-62
2022/01/09 02:29:11;;;;;;;65.80;31.67;;;;;;;7.42;100.00;98650.97;5031588;28;20217;-67
2022/01/09 02:31:38;;;;;;;69.03;31.73;;;;;;;7.41;100.00;98640.69;5032038;28;20199;-66
2022/01/09 02:34:05;;;;;;;67.07;32.10;;;;;;;7.43;100.00;98637.16;5033000;28;20611;-67
2022/01/09 02:36:31;;;;;;;68.23;30.17;;;;;;;7.40;100.00;98626.06;5031860;28;20229;-67
2022/01/09 02:39:00;;;;;;;67.80;29.93;;;;;;;7.39;100.00;98621.81;5032050;28;20573;-67
2022/01/09 02:41:27;;;;;;;59.67;30.00;;;;;;;7.40;100.00;98623.50;5031730;28;20205;-68
2022/01/09 02:43:54;;;;;;;66.10;31.50;;;;;;;7.37;100.00;98616.69;5032048;28;20216;-67
2022/01/09 02:46:37;;;;;;;65.60;31.33;;;;;;;7.35;100.00;98612.44;5031760;28;20232;-67
2022/01/09 02:49:05;;;;;;;65.47;31.47;;;;;;;7.34;100.00;98606.44;5032408;28;20201;-67
2022/01/09 02:51:32;;;;;;;62.17;30.10;;;;;;;7.32;100.00;98597.94;5032245;28;20667;-67
2022/01/09 02:55:04;;;;;;;63.13;31.67;;;;;;;7.37;100.00;98595.19;5031354;28;20197;-68
2022/01/09 02:56:48;;;;;;;62.23;30.90;;;;;;;7.24;100.00;98612.78;5031553;28;20197;-67
2022/01/09 02:59:15;;;;;;;60.90;30.90;;;;;;;7.12;100.00;98608.81;5031277;28;20288;-67
2022/01/09 03:01:42;;;;;;;61.97;30.67;;;;;;;7.16;100.00;98602.69;5031207;28;20197;-67
2022/01/09 03:04:08;;;;;;;62.67;30.73;;;;;;;7.28;100.00;98601.47;5030873;28;20193;-67
2022/01/09 03:06:35;;;;;;;63.50;30.10;;;;;;;7.23;100.00;98586.13;5030775;28;20250;-67
2022/01/09 03:09:06;;;;;;;64.17;31.60;;;;;;;7.48;100.00;98616.34;5031728;28;20232;-66
2022/01/09 03:11:33;;;;;;;64.77;30.83;;;;;;;7.46;100.00;98612.97;5031210;28;20212;-67
2022/01/09 03:14:00;;;;;;;60.87;31.50;;;;;;;7.54;100.00;98603.28;5031048;28;20208;-62
2022/01/09 03:16:27;;;;;;;60.70;30.30;;;;;;;7.50;100.00;98606.81;5031073;28;20197;-61
2022/01/09 03:18:54;;;;;;;63.27;31.20;;;;;;;7.43;100.00;98602.75;5030843;28;20212;-62
2022/01/09 03:21:21;;;;;;;64.30;31.50;;;;;;;7.50;100.00;98601.66;5030891;28;20197;-63
2022/01/09 03:23:47;;;;;;;62.53;30.93;;;;;;;7.50;100.00;98610.25;5030979;28;20600;-67
2022/01/09 03:26:16;;;;;;;68.17;32.77;;;;;;;7.50;100.00;98601.66;5031313;28;20209;-67
2022/01/09 03:28:43;;;;;;;64.33;32.00;;;;;;;7.32;100.00;98603.09;5031661;28;20225;-68
2022/01/09 03:31:10;;;;;;;73.63;32.60;;;;;;;7.44;100.00;98607.03;5031024;28;20583;-63
2022/01/09 03:33:36;;;;;;;68.07;32.00;;;;;;;7.46;100.00;98610.38;5030468;28;20197;-62
2022/01/09 03:36:04;;;;;;;63.40;31.63;;;;;;;7.33;100.00;98609.94;5030530;28;20239;-62
2022/01/09 03:38:31;;;;;;;67.30;32.60;;;;;;;7.40;100.00;98606.28;5030795;28;20559;-62
2022/01/09 03:40:58;;;;;;;65.90;32.43;;;;;;;7.34;100.00;98600.44;5030423;28;20204;-62
2022/01/09 03:43:26;;;;;;;72.97;32.30;;;;;;;7.41;100.00;98607.13;5031021;28;20201;-59
2022/01/09 03:45:53;;;;;;;66.40;32.63;;;;;;;7.41;100.00;98602.81;5030441;28;20203;-62
2022/01/09 03:48:20;;;;;;;64.67;31.23;;;;;;;7.39;100.00;98604.56;5030151;28;20220;-62
2022/01/09 03:50:51;;;;;;;66.83;32.77;;;;;;;7.43;100.00;98595.00;5030587;28;20869;-67
2022/01/09 03:53:18;;;;;;;59.17;31.40;;;;;;;7.43;100.00;98593.28;5030344;28;20201;-67
2022/01/09 03:55:45;;;;;;;66.03;31.13;;;;;;;7.42;100.00;98591.59;5030419;28;20291;-67
2022/01/09 03:58:12;;;;;;;62.67;31.47;;;;;;;7.43;100.00;98595.84;5030667;28;20235;-67
2022/01/09 04:00:40;;;;;;;65.73;31.60;;;;;;;7.53;100.00;98592.09;5030891;28;20212;-66
2022/01/09 04:03:07;;;;;;;64.30;30.53;;;;;;;7.54;100.00;98593.78;5030192;28;20197;-62
2022/01/09 04:05:34;;;;;;;66.10;33.60;;;;;;;7.50;100.00;98586.19;5030550;28;20707;-67
2022/01/09 04:08:01;;;;;;;71.93;33.83;;;;;;;7.44;100.00;98594.97;5030104;28;20231;-67
2022/01/09 04:10:29;;;;;;;69.13;32.73;;;;;;;7.43;100.00;98590.69;5030167;28;20197;-67
2022/01/09 04:12:59;;;;;;;65.57;32.07;;;;;;;7.46;100.00;98590.56;5030298;28;20201;-67
2022/01/09 04:15:27;;;;;;;70.60;33.03;;;;;;;7.46;100.00;98588.00;5030257;28;20254;-67
2022/01/09 04:17:57;;;;;;;68.43;33.07;;;;;;;7.43;100.00;98582.94;5029329;28;20205;-62
2022/01/09 04:20:25;;;;;;;66.90;32.23;;;;;;;7.40;100.00;98580.47;5030003;28;20205;-62
2022/01/09 04:22:52;;;;;;;70.80;32.13;;;;;;;7.29;100.00;98577.38;5030333;28;20202;-62
2022/01/09 04:25:20;;;;;;;71.93;32.90;;;;;;;7.25;100.00;98584.34;5029798;28;20213;-62
2022/01/09 04:27:47;;;;;;;64.83;32.83;;;;;;;7.21;100.00;98581.91;5029671;28;20233;-62
2022/01/09 04:30:15;;;;;;;65.27;31.80;;;;;;;7.22;100.00;98575.88;5030016;28;20208;-62
2022/01/09 04:32:42;;;;;;;70.13;33.43;;;;;;;7.33;100.00;98567.78;5030218;28;20219;-62
2022/01/09 04:35:12;;;;;;;66.57;32.20;;;;;;;7.26;100.00;98567.13;5030087;28;20584;-62
2022/01/09 04:37:40;;;;;;;64.97;32.97;;;;;;;7.34;100.00;98570.31;5029874;28;20233;-67
2022/01/09 04:40:10;;;;;;;71.83;32.87;;;;;;;7.32;100.00;98568.69;5030776;28;20208;-62
2022/01/09 04:42:41;;;;;;;69.70;31.43;;;;;;;7.41;100.00;98579.56;5029954;28;20284;-67
2022/01/09 04:45:10;;;;;;;66.90;31.47;;;;;;;7.43;100.00;98577.78;5030037;28;20627;-62
2022/01/09 04:47:40;;;;;;;66.03;32.77;;;;;;;7.46;100.00;98572.50;5029950;28;20284;-62
2022/01/09 04:50:09;;;;;;;68.13;32.73;;;;;;;7.44;100.00;98568.31;5029930;28;20683;-62
2022/01/09 04:52:39;;;;;;;65.50;32.37;;;;;;;7.29;100.00;98569.63;5029886;28;20207;-65
2022/01/09 04:55:06;;;;;;;68.37;32.57;;;;;;;7.21;100.00;98566.44;5030017;28;20661;-67
2022/01/09 04:57:33;;;;;;;63.40;31.30;;;;;;;7.24;100.00;98581.81;5029643;28;20197;-61
2022/01/09 05:00:00;;;;;;;66.93;32.87;;;;;;;7.23;100.00;98578.38;5029537;28;20197;-62
2022/01/09 05:02:27;;;;;;;62.67;32.07;;;;;;;7.34;100.00;98575.47;5029754;28;20691;-61
2022/01/09 05:04:54;;;;;;;62.17;31.40;;;;;;;7.41;100.00;98576.13;5029775;28;20210;-66
2022/01/09 05:07:21;;;;;;;60.97;30.57;;;;;;;7.43;100.00;98577.78;5029832;28;20208;-61
2022/01/09 05:09:50;;;;;;;63.33;30.70;;;;;;;7.34;100.00;98574.63;5029883;28;20227;-66
2022/01/09 05:12:17;;;;;;;61.47;31.00;;;;;;;7.35;100.00;98566.84;5029602;28;20208;-61
2022/01/09 05:14:45;;;;;;;58.87;29.53;;;;;;;7.29;100.00;98573.03;5029540;28;20323;-62
2022/01/09 05:17:12;;;;;;;63.93;32.40;;;;;;;7.31;100.00;98564.41;5029577;28;20208;-67
2022/01/09 05:19:40;;;;;;;65.03;31.87;;;;;;;7.41;100.00;98560.66;5029769;28;20198;-67
2022/01/09 05:22:08;;;;;;;73.03;32.57;;;;;;;7.43;100.00;98564.03;5029625;28;20288;-67
2022/01/09 05:24:35;;;;;;;63.73;30.47;;;;;;;7.36;100.00;98565.94;5029587;28;20280;-61
2022/01/09 05:27:04;;;;;;;66.10;32.97;;;;;;;7.32;100.00;98568.69;5029566;28;20208;-61
2022/01/09 05:29:31;;;;;;;69.67;32.93;;;;;;;7.42;100.00;98572.66;5032528;28;20217;-66
2022/01/09 05:31:58;;;;;;;61.60;31.53;;;;;;;7.51;100.00;98569.78;5032909;28;20625;-67
2022/01/09 05:34:25;;;;;;;65.17;31.63;;;;;;;7.34;100.00;98570.31;5032775;28;20677;-67
2022/01/09 05:36:52;;;;;;;66.87;32.87;;;;;;;7.21;100.00;98574.19;5032823;28;20267;-61
2022/01/09 05:39:19;;;;;;;71.83;33.80;;;;;;;6.99;100.00;98527.53;5032869;28;20201;-59
2022/01/09 05:41:47;;;;;;;64.17;32.67;;;;;;;7.26;100.00;98567.13;5033414;28;20580;-66
2022/01/09 05:44:17;;;;;;;70.73;32.60;;;;;;;7.28;100.00;98579.09;5032807;28;20284;-67
2022/01/09 05:46:44;;;;;;;66.17;33.20;;;;;;;7.39;100.00;98572.75;5032779;28;20197;-67
2022/01/09 05:49:11;;;;;;;64.57;32.37;;;;;;;7.37;100.00;98579.69;5032678;28;20221;-67
2022/01/09 05:51:38;;;;;;;69.33;32.60;;;;;;;7.39;100.00;98575.34;5032891;28;20236;-61
2022/01/09 05:54:05;;;;;;;73.30;32.90;;;;;;;7.46;100.00;98574.25;5032658;28;20201;-67
2022/01/09 05:56:32;;;;;;;71.43;34.30;;;;;;;7.31;100.00;98574.75;5032423;28;20201;-67
2022/01/09 05:58:59;;;;;;;72.87;32.60;;;;;;;7.22;100.00;98581.03;5032534;28;20284;-66
2022/01/09 06:01:27;;;;;;;75.30;33.37;;;;;;;7.35;100.00;98581.47;5032773;28;20204;-67
2022/01/09 06:03:54;;;;;;;71.00;32.40;;;;;;;7.32;100.00;98581.59;5032191;28;20207;-62
2022/01/09 06:06:21;;;;;;;64.47;30.93;;;;;;;7.39;100.00;98580.50;5032146;28;20197;-62
2022/01/09 06:08:48;;;;;;;65.07;29.87;;;;;;;7.39;100.00;98585.66;5032006;28;20221;-62
2022/01/09 06:11:15;;;;;;;66.07;30.10;;;;;;;7.42;100.00;98578.69;5032020;28;20237;-61
2022/01/09 06:13:42;;;;;;;67.20;31.43;;;;;;;7.38;100.00;98573.66;5032208;28;20195;-61
2022/01/09 06:16:09;;;;;;;68.47;31.67;;;;;;;7.26;100.00;98567.13;5016458;28;20285;-62
2022/01/09 06:18:37;;;;;;;64.70;30.57;;;;;;;7.39;100.00;98562.44;4995364;28;20278;-60
2022/01/09 06:21:04;;;;;;;63.63;30.20;;;;;;;7.45;100.00;98555.31;4992527;28;20290;-61
2022/01/09 06:23:31;;;;;;;57.97;30.33;;;;;;;7.44;100.00;98570.88;4997808;28;20194;-62
2022/01/09 06:25:58;;;;;;;59.80;28.87;;;;;;;7.49;100.00;98564.69;5002348;28;20194;-62
2022/01/09 06:28:25;;;;;;;55.00;28.17;;;;;;;7.44;100.00;98563.16;5007365;28;20721;-63
2022/01/09 06:30:52;;;;;;;60.23;29.43;;;;;;;7.41;100.00;98563.22;5011722;28;20199;-62
2022/01/09 06:33:19;;;;;;;60.07;29.33;;;;;;;7.25;100.00;98539.63;5012030;28;20205;-61
2022/01/09 06:35:47;;;;;;;57.63;29.57;;;;;;;7.38;100.00;98563.31;5011955;28;20317;-61
2022/01/09 06:38:14;;;;;;;63.53;30.83;;;;;;;7.49;100.00;98566.41;5011854;28;20230;-59
2022/01/09 06:40:41;;;;;;;57.23;29.10;;;;;;;7.41;100.00;98566.66;5011353;28;20709;-67
2022/01/09 06:43:09;;;;;;;57.50;28.00;;;;;;;7.46;100.00;98564.75;5011752;28;20754;-61
2022/01/09 06:45:36;;;;;;;60.43;30.13;;;;;;;7.46;100.00;98558.75;5011662;28;20700;-68
2022/01/09 06:48:03;;;;;;;60.70;29.13;;;;;;;7.41;100.00;98540.00;5011861;28;20213;-62
2022/01/09 06:50:30;;;;;;;60.83;28.73;;;;;;;7.57;100.00;98556.69;5011700;28;20728;-62
2022/01/09 06:52:58;;;;;;;62.80;29.90;;;;;;;7.43;100.00;98554.56;5011553;28;20208;-59
2022/01/09 06:55:25;;;;;;;56.53;29.77;;;;;;;7.55;100.00;98548.16;5011442;28;20277;-61
2022/01/09 06:57:53;;;;;;;53.30;28.60;;;;;;;7.50;100.00;98547.44;5011303;28;20194;-64
2022/01/09 07:00:21;;;;;;;54.33;28.87;;;;;;;7.53;100.00;98531.88;5011444;28;20194;-64
2022/01/09 07:02:48;;;;;;;56.67;28.43;;;;;;;7.56;100.00;98526.63;5011427;28;20193;-63
2022/01/09 07:05:16;;;;;;;54.97;30.00;;;;;;;7.46;100.00;98520.03;5011428;28;20293;-62
2022/01/09 07:07:43;;;;;;;58.00;28.47;;;;;;;7.48;100.00;98515.66;5011533;28;20198;-61
2022/01/09 07:10:13;;;;;;;58.00;30.20;;;;;;;7.56;100.00;98524.84;5009055;28;20224;-63
2022/01/09 07:12:40;;;;;;;59.63;29.77;;;;;;;7.64;100.00;98528.03;5009724;28;20304;-59
2022/01/09 07:15:08;;;;;;;54.73;28.90;;;;;;;7.66;100.00;98535.75;5010063;28;20595;-61
2022/01/09 07:17:35;;;;;;;54.13;28.03;;;;;;;7.78;100.00;98535.34;5009542;28;20205;-66
2022/01/09 07:20:02;;;;;;;53.73;27.63;;;;;;;7.79;100.00;98526.66;5009713;28;20190;-67
2022/01/09 07:22:29;;;;;;;53.40;27.57;;;;;;;7.78;100.00;98534.50;5009753;28;20281;-66
2022/01/09 07:24:56;;;;;;;52.23;28.97;;;;;;;7.84;100.00;98529.97;5009684;28;20204;-66
2022/01/09 07:27:24;;;;;;;48.70;27.40;;;;;;;7.89;100.00;98541.00;5009816;28;20280;-65
2022/01/09 07:29:51;;;;;;;52.60;27.20;;;;;;;7.93;100.00;98534.81;5007241;28;20225;-68
2022/01/09 07:32:18;;;;;;;54.93;27.93;;;;;;;7.80;100.00;98527.50;5009976;28;20194;-67
2022/01/09 07:34:45;;;;;;;60.13;30.50;;;;;;;7.89;100.00;98533.25;5010243;28;20284;-66
2022/01/09 07:37:12;;;;;;;54.70;30.00;;;;;;;7.90;100.00;98542.66;5009952;28;20236;-66
2022/01/09 07:39:39;;;;;;;65.63;33.13;;;;;;;7.88;100.00;98539.31;5015251;28;20201;-67
2022/01/09 07:42:06;;;;;;;77.13;35.23;;;;;;;7.91;100.00;98530.59;5011237;28;20570;-67
2022/01/09 07:44:35;;;;;;;70.07;34.37;;;;;;;7.80;100.00;98518.03;5011217;28;20296;-68
2022/01/09 07:47:02;;;;;;;70.83;34.90;;;;;;;7.79;100.00;98521.50;5011013;28;20202;-67
2022/01/09 07:49:29;;;;;;;63.83;34.37;;;;;;;7.80;100.00;98520.63;5011098;28;20228;-66
2022/01/09 07:51:56;;;;;;;58.97;30.70;;;;;;;7.76;100.00;98524.22;5010816;28;20202;-65
2022/01/09 07:54:23;;;;;;;60.97;31.03;;;;;;;7.69;100.00;98491.72;5010641;28;20654;-66
2022/01/09 07:56:50;;;;;;;57.47;28.47;;;;;;;7.96;100.00;98516.63;5011155;28;20612;-67
2022/01/09 07:59:17;;;;;;;58.63;28.77;;;;;;;7.99;100.00;98511.38;5010752;28;20190;-67
2022/01/09 08:01:46;;;;;;;56.40;29.50;;;;;;;8.05;100.00;98522.38;5010980;28;20293;-62
2022/01/09 08:04:13;;;;;;;57.20;30.67;;;;;;;8.00;100.00;98517.38;5010539;28;20256;-62
2022/01/09 08:06:40;;;;;;;55.93;29.63;;;;;;;7.99;100.00;98507.94;5009970;28;20264;-61
2022/01/09 08:09:07;;;;;;;54.67;30.03;;;;;;;8.19;100.00;98517.56;5010547;28;20225;-63
2022/01/09 08:11:34;;;;;;;53.30;29.17;;;;;;;8.09;100.00;98513.63;5017698;28;20225;-60
2022/01/09 08:14:01;;;;;;;49.67;27.17;;;;;;;8.26;100.00;98504.38;5001878;28;20226;-67
2022/01/09 08:16:28;;;;;;;52.13;27.13;;;;;;;8.27;100.00;98518.13;5005509;28;20226;-66
2022/01/09 08:18:56;;;;;;;46.23;26.43;;;;;;;8.24;100.00;98515.69;5011577;28;20308;-67
2022/01/09 08:21:23;;;;;;;45.87;25.67;;;;;;;8.28;100.00;98518.09;5009548;28;20228;-63
2022/01/09 08:23:50;;;;;;;45.87;27.20;;;;;;;8.24;100.00;98520.84;5012231;28;20779;-60
2022/01/09 08:26:18;;;;;;;49.53;26.67;;;;;;;8.31;100.00;98523.19;5009798;28;20257;-67
2022/01/09 08:28:47;;;;;;;52.83;28.67;;;;;;;8.24;100.00;98507.94;5008537;28;20680;-67
2022/01/09 08:31:15;;;;;;;54.83;28.80;;;;;;;8.38;100.00;98516.03;5010259;28;20275;-66
2022/01/09 08:33:42;;;;;;;50.97;27.57;;;;;;;8.46;100.00;98516.63;5008559;28;20225;-67
2022/01/09 08:36:11;;;;;;;54.67;28.67;;;;;;;8.29;100.00;98511.19;5008889;28;20368;-66
2022/01/09 08:38:38;;;;;;;56.30;29.53;;;;;;;8.24;100.00;98507.94;5008572;28;20225;-67
2022/01/09 08:41:05;;;;;;;70.07;30.27;;;;;;;8.31;100.00;98504.22;5008346;28;20230;-68
2022/01/09 08:43:32;;;;;;;55.00;30.07;;;;;;;8.25;100.00;98488.91;5005268;28;20221;-62
2022/01/09 08:45:59;;;;;;;62.50;29.40;;;;;;;8.27;100.00;98487.97;5003180;28;20222;-63
2022/01/09 08:48:26;;;;;;;57.20;30.77;;;;;;;8.36;100.00;98491.97;5007499;28;20683;-61
2022/01/09 08:50:53;;;;;;;60.97;33.53;;;;;;;8.41;100.00;98500.44;5008518;28;20233;-64
2022/01/09 08:53:22;;;;;;;61.23;34.83;;;;;;;8.37;100.00;98504.00;5007919;28;20225;-63
2022/01/09 08:55:49;;;;;;;64.33;34.80;;;;;;;8.44;100.00;98495.16;5008239;28;20226;-66
2022/01/09 08:58:16;;;;;;;63.83;36.90;;;;;;;8.38;100.00;98491.03;5007907;28;20297;-68
2022/01/09 09:00:43;;;;;;;70.23;37.27;;;;;;;8.40;100.00;98492.72;5008446;28;20228;-67
2022/01/09 09:03:10;;;;;;;64.17;35.00;;;;;;;8.47;100.00;98495.03;5004490;28;20318;-63
2022/01/09 09:05:37;;;;;;;59.20;34.13;;;;;;;8.34;100.00;98496.41;5008651;28;20631;-63
2022/01/09 09:08:04;;;;;;;59.10;34.33;;;;;;;8.39;100.00;98486.72;5012000;28;20618;-67
2022/01/09 09:10:33;;;;;;;56.90;33.57;;;;;;;8.46;100.00;98492.53;5004945;28;20229;-67
2022/01/09 09:13:00;;;;;;;61.90;33.13;;;;;;;8.50;100.00;98479.41;5006707;28;20223;-67
2022/01/09 09:15:27;;;;;;;65.50;33.83;;;;;;;8.46;100.00;98477.84;5011268;28;20212;-67
2022/01/09 09:17:55;;;;;;;66.97;34.50;;;;;;;8.43;100.00;98479.69;5011130;28;20198;-62
2022/01/09 09:20:22;;;;;;;55.73;33.20;;;;;;;8.48;100.00;98467.41;5012420;28;20201;-59
2022/01/09 09:22:49;;;;;;;54.77;31.70;;;;;;;8.47;100.00;98461.41;5012925;28;20204;-59
2022/01/09 09:25:17;;;;;;;57.23;31.70;;;;;;;8.53;100.00;98462.94;5012136;28;20297;-69
2022/01/09 09:27:45;;;;;;;55.70;31.13;;;;;;;8.45;100.00;98465.81;5012127;28;20202;-66
2022/01/09 09:30:14;;;;;;;57.27;33.43;;;;;;;8.41;100.00;98453.88;5011824;28;20225;-58
2022/01/09 09:32:41;;;;;;;62.40;33.87;;;;;;;8.50;100.00;98469.06;5011758;28;20237;-61
2022/01/09 09:35:10;;;;;;;64.33;35.03;;;;;;;8.55;100.00;98467.16;5011115;28;20580;-61
2022/01/09 09:37:37;;;;;;;60.67;33.40;;;;;;;8.54;100.00;98468.06;5011877;28;20237;-61
2022/01/09 09:40:04;;;;;;;62.87;35.00;;;;;;;8.55;100.00;98459.41;5012619;28;20224;-60
2022/01/09 09:42:31;;;;;;;59.30;33.40;;;;;;;8.65;100.00;98455.56;5012546;28;20208;-62
2022/01/09 09:45:01;;;;;;;61.93;32.90;;;;;;;8.70;100.00;98455.38;5012509;28;20204;-61
2022/01/09 09:47:29;;;;;;;56.00;32.13;;;;;;;8.64;100.00;98455.63;5012567;28;20248;-61
2022/01/09 09:49:56;;;;;;;56.60;31.93;;;;;;;8.69;100.00;98461.47;5011965;28;20229;-68
2022/01/09 09:52:24;;;;;;;59.83;34.00;;;;;;;8.66;100.00;98459.00;5012558;28;20202;-67
2022/01/09 09:54:52;;;;;;;56.67;31.80;;;;;;;8.58;100.00;98445.50;5003824;28;20698;-68
2022/01/09 09:57:20;;;;;;;47.17;28.67;;;;;;;8.49;100.00;98443.25;4997705;28;20218;-67
2022/01/09 09:59:47;;;;;;;56.67;29.70;;;;;;;8.46;100.00;98446.81;5011147;28;20233;-66
2022/01/09 10:02:17;;;;;;;58.50;29.43;;;;;;;8.53;100.00;98437.91;5011375;28;20218;-57
2022/01/09 10:04:59;;;;;;;52.20;27.83;;;;;;;8.52;100.00;98431.06;5011498;28;20226;-66
2022/01/09 10:07:27;;;;;;;53.40;26.90;;;;;;;8.58;100.00;98420.47;5010160;28;20253;-65
2022/01/09 10:09:55;;;;;;;55.27;26.40;;;;;;;8.67;100.00;98419.28;5011275;28;20260;-60
2022/01/09 10:12:27;;;;;;;47.90;26.23;;;;;;;8.54;100.00;98426.69;5016564;28;20225;-60
2022/01/09 10:14:55;;;;;;;43.83;24.33;;;;;;;8.53;100.00;98431.91;5030205;28;20213;-62
2022/01/09 10:17:24;;;;;;;46.93;24.20;;;;;;;8.26;100.00;98392.38;5014326;28;20206;-61
2022/01/09 10:19:55;;;;;;;42.43;24.40;;;;;;;8.54;100.00;98433.59;5010937;28;20202;-62
2022/01/09 10:22:34;;;;;;;42.27;22.67;;;;;;;8.47;100.00;98432.97;5003670;28;20229;-68
2022/01/09 10:25:24;;;;;;;43.63;23.83;;;;;;;8.45;100.00;98426.19;5001380;28;20232;-60
2022/01/09 10:27:55;;;;;;;41.37;23.30;;;;;;;8.32;100.00;98408.53;5011261;28;20318;-58
2022/01/09 10:30:24;;;;;;;44.30;23.63;;;;;;;8.38;100.00;98430.72;5010690;28;20225;-57
2022/01/09 10:32:57;;;;;;;42.20;23.10;;;;;;;8.46;100.00;98413.22;5030353;28;20209;-58
2022/01/09 10:35:25;;;;;;;40.80;24.37;;;;;;;8.45;100.00;98418.44;5030946;28;20816;-59
2022/01/09 10:38:08;;;;;;;40.53;23.20;;;;;;;8.54;100.00;98405.16;5030759;28;20749;-66
2022/01/09 10:40:38;;;;;;;40.37;22.97;;;;;;;8.65;100.00;98401.25;5031599;28;20284;-66
2022/01/09 10:43:08;;;;;;;42.87;24.60;;;;;;;8.63;100.00;98392.69;5031514;28;20208;-66
2022/01/09 10:45:38;;;;;;;47.70;25.83;;;;;;;8.71;100.00;98401.00;5031815;28;20283;-66
2022/01/09 10:48:09;;;;;;;44.73;24.53;;;;;;;8.60;100.00;98372.13;5031662;28;20288;-65
2022/01/09 10:50:39;;;;;;;39.40;22.67;;;;;;;8.71;100.00;98385.47;5031513;28;20221;-66
2022/01/09 10:53:15;;;;;;;40.57;21.73;;;;;;;8.77;100.00;98380.97;5031868;28;20725;-65
2022/01/09 10:55:43;;;;;;;37.07;22.03;;;;;;;8.86;100.00;98388.38;5031836;28;20582;-65
2022/01/09 10:58:21;;;;;;;40.43;22.67;;;;;;;8.90;100.00;98374.41;5031400;28;20288;-65
2022/01/09 11:00:48;;;;;;;38.60;22.43;;;;;;;8.93;100.00;98379.44;5012937;28;20198;-67
2022/01/09 11:03:16;;;;;;;38.23;21.53;;;;;;;8.80;100.00;98360.16;5011314;28;20208;-68
2022/01/09 11:05:44;;;;;;;39.80;20.23;;;;;;;8.83;100.00;98360.88;5011560;28;20257;-67
2022/01/09 11:08:12;;;;;;;37.33;20.83;;;;;;;8.82;100.00;98366.94;5011263;28;20202;-67
2022/01/09 11:10:40;;;;;;;33.87;20.37;;;;;;;8.83;100.00;98366.03;5011618;28;20747;-66
2022/01/09 11:13:14;;;;;;;36.43;20.67;;;;;;;8.90;100.00;98353.72;5011442;28;20229;-62
2022/01/09 11:16:32;;;;;;;34.80;19.47;;;;;;;8.95;100.00;98351.75;5010260;28;20992;-64
2022/01/09 11:18:32;;;;;;;35.20;20.07;;;;;;;8.85;100.00;98348.72;5009540;28;20193;-63
2022/01/09 11:20:59;;;;;;;34.63;19.90;;;;;;;8.60;100.00;98307.47;5010155;28;20190;-67